sensor_id;sensor_type;location;lat;lon;timestamp;temperature;humidity
20911;DHT22;10615;42.702;23.314;2024-02-21T00:00:54;8.30;91.70
20911;DHT22;10615;42.702;23.314;2024-02-21T00:01:55;8.30;91.70
20911;DHT22;10615;42.702;23.314;2024-02-21T00:02:56;8.30;91.60
20911;DHT22;10615;42.702;23.314;2024-02-21T00:03:59;8.30;91.60
20911;DHT22;10615;42.702;23.314;2024-02-21T00:05:00;8.40;91.70
20911;DHT22;10615;42.702;23.314;2024-02-21T00:06:01;8.30;91.50
20911;DHT22;10615;42.702;23.314;2024-02-21T00:07:01;8.30;91.50
20911;DHT22;10615;42.702;23.314;2024-02-21T00:08:02;8.30;91.60
20911;DHT22;10615;42.702;23.314;2024-02-21T00:09:06;8.30;91.60
20911;DHT22;10615;42.702;23.314;2024-02-21T00:10:07;8.40;91.60
20911;DHT22;10615;42.702;23.314;2024-02-21T00:11:08;8.40;91.60
20911;DHT22;10615;42.702;23.314;2024-02-21T00:12:09;8.40;91.50
20911;DHT22;10615;42.702;23.314;2024-02-21T00:13:09;8.30;91.90
20911;DHT22;10615;42.702;23.314;2024-02-21T00:14:10;8.40;91.50
20911;DHT22;10615;42.702;23.314;2024-02-21T00:15:11;8.40;91.50
20911;DHT22;10615;42.702;23.314;2024-02-21T00:16:11;8.40;91.40
20911;DHT22;10615;42.702;23.314;2024-02-21T00:17:13;8.40;91.30
20911;DHT22;10615;42.702;23.314;2024-02-21T00:18:14;8.40;91.30
20911;DHT22;10615;42.702;23.314;2024-02-21T00:19:15;8.40;91.30
20911;DHT22;10615;42.702;23.314;2024-02-21T00:20:16;8.40;91.30
20911;DHT22;10615;42.702;23.314;2024-02-21T00:21:17;8.40;91.30
20911;DHT22;10615;42.702;23.314;2024-02-21T00:22:18;8.30;91.30
20911;DHT22;10615;42.702;23.314;2024-02-21T00:23:19;8.40;91.40
20911;DHT22;10615;42.702;23.314;2024-02-21T00:24:20;8.40;91.30
20911;DHT22;10615;42.702;23.314;2024-02-21T00:25:21;8.40;91.40
20911;DHT22;10615;42.702;23.314;2024-02-21T00:26:21;8.30;91.20
20911;DHT22;10615;42.702;23.314;2024-02-21T00:27:22;8.30;91.20
20911;DHT22;10615;42.702;23.314;2024-02-21T00:28:23;8.30;91.30
20911;DHT22;10615;42.702;23.314;2024-02-21T00:29:24;8.20;91.30
20911;DHT22;10615;42.702;23.314;2024-02-21T00:30:25;8.20;91.30
20911;DHT22;10615;42.702;23.314;2024-02-21T00:31:25;8.20;91.40
20911;DHT22;10615;42.702;23.314;2024-02-21T00:32:26;8.20;91.40
20911;DHT22;10615;42.702;23.314;2024-02-21T00:33:27;8.20;91.40
20911;DHT22;10615;42.702;23.314;2024-02-21T00:34:27;8.20;91.50
20911;DHT22;10615;42.702;23.314;2024-02-21T00:35:28;8.30;91.50
20911;DHT22;10615;42.702;23.314;2024-02-21T00:36:29;8.30;91.50
20911;DHT22;10615;42.702;23.314;2024-02-21T00:37:31;8.30;91.40
20911;DHT22;10615;42.702;23.314;2024-02-21T00:38:32;8.30;91.40
20911;DHT22;10615;42.702;23.314;2024-02-21T00:39:32;8.30;91.50
20911;DHT22;10615;42.702;23.314;2024-02-21T00:40:34;8.30;91.50
20911;DHT22;10615;42.702;23.314;2024-02-21T00:41:35;8.30;91.40
20911;DHT22;10615;42.702;23.314;2024-02-21T00:42:36;8.20;91.40
20911;DHT22;10615;42.702;23.314;2024-02-21T00:43:37;8.20;91.90
20911;DHT22;10615;42.702;23.314;2024-02-21T00:44:38;8.20;91.50
20911;DHT22;10615;42.702;23.314;2024-02-21T00:45:38;8.20;91.60
20911;DHT22;10615;42.702;23.314;2024-02-21T00:46:39;8.20;91.60
20911;DHT22;10615;42.702;23.314;2024-02-21T00:47:40;8.20;91.60
20911;DHT22;10615;42.702;23.314;2024-02-21T00:48:41;8.20;91.60
20911;DHT22;10615;42.702;23.314;2024-02-21T00:49:41;8.20;91.70
20911;DHT22;10615;42.702;23.314;2024-02-21T00:50:42;8.20;91.70
20911;DHT22;10615;42.702;23.314;2024-02-21T00:51:43;8.20;91.70
20911;DHT22;10615;42.702;23.314;2024-02-21T00:52:44;8.20;91.70
20911;DHT22;10615;42.702;23.314;2024-02-21T00:53:45;8.20;91.60
20911;DHT22;10615;42.702;23.314;2024-02-21T00:54:45;8.20;91.60
20911;DHT22;10615;42.702;23.314;2024-02-21T00:55:46;8.20;91.60
20911;DHT22;10615;42.702;23.314;2024-02-21T00:56:47;8.30;91.60
20911;DHT22;10615;42.702;23.314;2024-02-21T00:57:48;8.20;91.50
20911;DHT22;10615;42.702;23.314;2024-02-21T00:58:48;8.20;91.60
20911;DHT22;10615;42.702;23.314;2024-02-21T00:59:49;8.20;91.60
20911;DHT22;10615;42.702;23.314;2024-02-21T01:00:50;8.20;91.60
20911;DHT22;10615;42.702;23.314;2024-02-21T01:01:50;8.20;91.60
20911;DHT22;10615;42.702;23.314;2024-02-21T01:02:51;8.20;91.60
20911;DHT22;10615;42.702;23.314;2024-02-21T01:03:52;8.30;91.60
20911;DHT22;10615;42.702;23.314;2024-02-21T01:04:53;8.30;91.60
20911;DHT22;10615;42.702;23.314;2024-02-21T01:05:54;8.30;91.60
20911;DHT22;10615;42.702;23.314;2024-02-21T01:06:55;8.30;91.60
20911;DHT22;10615;42.702;23.314;2024-02-21T01:07:56;8.30;91.60
20911;DHT22;10615;42.702;23.314;2024-02-21T01:08:56;8.30;91.60
20911;DHT22;10615;42.702;23.314;2024-02-21T01:09:57;8.30;91.60
20911;DHT22;10615;42.702;23.314;2024-02-21T01:10:58;8.30;91.90
20911;DHT22;10615;42.702;23.314;2024-02-21T01:11:58;8.20;91.50
20911;DHT22;10615;42.702;23.314;2024-02-21T01:12:59;8.20;91.60
20911;DHT22;10615;42.702;23.314;2024-02-21T01:14:00;8.30;91.60
20911;DHT22;10615;42.702;23.314;2024-02-21T01:15:01;8.30;91.50
20911;DHT22;10615;42.702;23.314;2024-02-21T01:16:01;8.30;91.50
20911;DHT22;10615;42.702;23.314;2024-02-21T01:17:02;8.30;91.50
20911;DHT22;10615;42.702;23.314;2024-02-21T01:18:03;8.30;91.50
20911;DHT22;10615;42.702;23.314;2024-02-21T01:19:05;8.30;91.50
20911;DHT22;10615;42.702;23.314;2024-02-21T01:20:06;8.30;91.50
20911;DHT22;10615;42.702;23.314;2024-02-21T01:21:07;8.30;91.50
20911;DHT22;10615;42.702;23.314;2024-02-21T01:22:08;8.30;91.50
20911;DHT22;10615;42.702;23.314;2024-02-21T01:23:09;8.30;91.40
20911;DHT22;10615;42.702;23.314;2024-02-21T01:24:10;8.30;91.50
20911;DHT22;10615;42.702;23.314;2024-02-21T01:25:10;8.30;91.40
20911;DHT22;10615;42.702;23.314;2024-02-21T01:26:11;8.30;91.40
20911;DHT22;10615;42.702;23.314;2024-02-21T01:27:14;8.30;91.30
20911;DHT22;10615;42.702;23.314;2024-02-21T01:28:15;8.30;91.30
20911;DHT22;10615;42.702;23.314;2024-02-21T01:29:15;8.30;91.30
20911;DHT22;10615;42.702;23.314;2024-02-21T01:30:16;8.30;91.30
20911;DHT22;10615;42.702;23.314;2024-02-21T01:31:17;8.40;91.30
20911;DHT22;10615;42.702;23.314;2024-02-21T01:32:18;8.40;91.30
20911;DHT22;10615;42.702;23.314;2024-02-21T01:33:19;8.40;91.30
20911;DHT22;10615;42.702;23.314;2024-02-21T01:34:19;8.40;91.30
20911;DHT22;10615;42.702;23.314;2024-02-21T01:35:20;8.40;91.30
20911;DHT22;10615;42.702;23.314;2024-02-21T01:36:21;8.40;91.30
20911;DHT22;10615;42.702;23.314;2024-02-21T01:37:22;8.40;91.30
20911;DHT22;10615;42.702;23.314;2024-02-21T01:38:22;8.40;91.30
20911;DHT22;10615;42.702;23.314;2024-02-21T01:39:23;8.40;91.20
20911;DHT22;10615;42.702;23.314;2024-02-21T01:40:24;8.40;91.20
20911;DHT22;10615;42.702;23.314;2024-02-21T01:41:25;8.40;91.20
20911;DHT22;10615;42.702;23.314;2024-02-21T01:42:25;8.40;91.20
20911;DHT22;10615;42.702;23.314;2024-02-21T01:43:26;8.40;91.20
20911;DHT22;10615;42.702;23.314;2024-02-21T01:44:27;8.40;91.10
20911;DHT22;10615;42.702;23.314;2024-02-21T01:45:28;8.40;91.10
20911;DHT22;10615;42.702;23.314;2024-02-21T01:47:49;8.40;91.10
20911;DHT22;10615;42.702;23.314;2024-02-21T01:48:50;8.40;91.00
20911;DHT22;10615;42.702;23.314;2024-02-21T01:49:51;8.40;91.00
20911;DHT22;10615;42.702;23.314;2024-02-21T01:50:54;8.40;91.00
20911;DHT22;10615;42.702;23.314;2024-02-21T01:51:55;8.30;91.00
20911;DHT22;10615;42.702;23.314;2024-02-21T01:52:56;8.30;91.00
20911;DHT22;10615;42.702;23.314;2024-02-21T01:53:57;8.40;91.10
20911;DHT22;10615;42.702;23.314;2024-02-21T01:54:58;8.30;91.10
20911;DHT22;10615;42.702;23.314;2024-02-21T01:55:59;8.30;91.10
20911;DHT22;10615;42.702;23.314;2024-02-21T01:57:00;8.30;91.10
20911;DHT22;10615;42.702;23.314;2024-02-21T01:58:02;8.40;91.10
20911;DHT22;10615;42.702;23.314;2024-02-21T01:59:03;8.30;91.00
20911;DHT22;10615;42.702;23.314;2024-02-21T02:00:04;8.30;91.10
20911;DHT22;10615;42.702;23.314;2024-02-21T02:01:06;8.30;91.10
20911;DHT22;10615;42.702;23.314;2024-02-21T02:02:07;8.30;91.10
20911;DHT22;10615;42.702;23.314;2024-02-21T02:03:09;8.30;91.10
20911;DHT22;10615;42.702;23.314;2024-02-21T02:04:11;8.30;91.00
20911;DHT22;10615;42.702;23.314;2024-02-21T02:05:12;8.30;91.00
20911;DHT22;10615;42.702;23.314;2024-02-21T02:06:13;8.30;91.00
20911;DHT22;10615;42.702;23.314;2024-02-21T02:07:14;8.30;91.00
20911;DHT22;10615;42.702;23.314;2024-02-21T02:08:19;8.30;90.90
20911;DHT22;10615;42.702;23.314;2024-02-21T02:09:20;8.30;90.90
20911;DHT22;10615;42.702;23.314;2024-02-21T02:10:20;8.30;90.90
20911;DHT22;10615;42.702;23.314;2024-02-21T02:11:21;8.30;90.90
20911;DHT22;10615;42.702;23.314;2024-02-21T02:12:22;8.30;90.90
20911;DHT22;10615;42.702;23.314;2024-02-21T02:13:23;8.30;90.80
20911;DHT22;10615;42.702;23.314;2024-02-21T02:14:24;8.30;90.80
20911;DHT22;10615;42.702;23.314;2024-02-21T02:15:25;8.30;90.80
20911;DHT22;10615;42.702;23.314;2024-02-21T02:16:26;8.30;90.70
20911;DHT22;10615;42.702;23.314;2024-02-21T02:17:26;8.30;90.80
20911;DHT22;10615;42.702;23.314;2024-02-21T02:18:27;8.30;90.80
20911;DHT22;10615;42.702;23.314;2024-02-21T02:19:28;8.30;90.70
20911;DHT22;10615;42.702;23.314;2024-02-21T02:20:29;8.30;90.70
20911;DHT22;10615;42.702;23.314;2024-02-21T02:21:32;8.30;90.70
20911;DHT22;10615;42.702;23.314;2024-02-21T02:22:37;8.30;90.70
20911;DHT22;10615;42.702;23.314;2024-02-21T02:23:39;8.30;90.70
20911;DHT22;10615;42.702;23.314;2024-02-21T02:24:40;8.30;90.70
20911;DHT22;10615;42.702;23.314;2024-02-21T02:25:41;8.30;90.70
20911;DHT22;10615;42.702;23.314;2024-02-21T02:26:42;8.30;90.70
20911;DHT22;10615;42.702;23.314;2024-02-21T02:27:43;8.30;91.10
20911;DHT22;10615;42.702;23.314;2024-02-21T02:28:47;8.30;90.70
20911;DHT22;10615;42.702;23.314;2024-02-21T02:29:47;8.30;90.70
20911;DHT22;10615;42.702;23.314;2024-02-21T02:30:49;8.30;90.70
20911;DHT22;10615;42.702;23.314;2024-02-21T02:31:49;8.30;90.70
20911;DHT22;10615;42.702;23.314;2024-02-21T02:32:50;8.30;90.70
20911;DHT22;10615;42.702;23.314;2024-02-21T02:33:51;8.30;90.70
20911;DHT22;10615;42.702;23.314;2024-02-21T02:34:51;8.30;90.70
20911;DHT22;10615;42.702;23.314;2024-02-21T02:35:52;8.30;90.70
20911;DHT22;10615;42.702;23.314;2024-02-21T02:36:53;8.30;90.60
20911;DHT22;10615;42.702;23.314;2024-02-21T02:37:55;8.30;90.60
20911;DHT22;10615;42.702;23.314;2024-02-21T02:38:55;8.30;90.60
20911;DHT22;10615;42.702;23.314;2024-02-21T02:39:56;8.30;90.60
20911;DHT22;10615;42.702;23.314;2024-02-21T02:40:57;8.30;90.60
20911;DHT22;10615;42.702;23.314;2024-02-21T02:41:58;8.30;90.60
20911;DHT22;10615;42.702;23.314;2024-02-21T02:42:58;8.30;90.60
20911;DHT22;10615;42.702;23.314;2024-02-21T02:43:59;8.30;90.60
20911;DHT22;10615;42.702;23.314;2024-02-21T02:45:00;8.30;90.60
20911;DHT22;10615;42.702;23.314;2024-02-21T02:46:00;8.30;90.60
20911;DHT22;10615;42.702;23.314;2024-02-21T02:47:01;8.30;90.70
20911;DHT22;10615;42.702;23.314;2024-02-21T02:48:02;8.30;90.70
20911;DHT22;10615;42.702;23.314;2024-02-21T02:49:03;8.30;90.60
20911;DHT22;10615;42.702;23.314;2024-02-21T02:50:04;8.30;90.60
20911;DHT22;10615;42.702;23.314;2024-02-21T02:51:05;8.30;90.70
20911;DHT22;10615;42.702;23.314;2024-02-21T02:52:06;8.20;90.70
20911;DHT22;10615;42.702;23.314;2024-02-21T02:53:07;8.30;90.70
20911;DHT22;10615;42.702;23.314;2024-02-21T02:54:08;8.30;90.70
20911;DHT22;10615;42.702;23.314;2024-02-21T02:55:08;8.20;90.70
20911;DHT22;10615;42.702;23.314;2024-02-21T02:56:17;8.20;90.70
20911;DHT22;10615;42.702;23.314;2024-02-21T02:57:18;8.20;90.70
20911;DHT22;10615;42.702;23.314;2024-02-21T02:58:19;8.30;90.70
20911;DHT22;10615;42.702;23.314;2024-02-21T02:59:19;8.20;90.70
20911;DHT22;10615;42.702;23.314;2024-02-21T03:00:20;8.30;90.70
20911;DHT22;10615;42.702;23.314;2024-02-21T03:01:21;8.30;90.70
20911;DHT22;10615;42.702;23.314;2024-02-21T03:02:21;8.20;90.70
20911;DHT22;10615;42.702;23.314;2024-02-21T03:03:22;8.30;90.80
20911;DHT22;10615;42.702;23.314;2024-02-21T03:04:23;8.20;90.70
20911;DHT22;10615;42.702;23.314;2024-02-21T03:05:24;8.20;90.70
20911;DHT22;10615;42.702;23.314;2024-02-21T03:06:25;8.30;90.70
20911;DHT22;10615;42.702;23.314;2024-02-21T03:07:25;8.20;90.70
20911;DHT22;10615;42.702;23.314;2024-02-21T03:08:26;8.30;90.70
20911;DHT22;10615;42.702;23.314;2024-02-21T03:09:27;8.30;90.70
20911;DHT22;10615;42.702;23.314;2024-02-21T03:10:28;8.20;90.60
20911;DHT22;10615;42.702;23.314;2024-02-21T03:11:29;8.20;90.70
20911;DHT22;10615;42.702;23.314;2024-02-21T03:12:30;8.20;90.70
20911;DHT22;10615;42.702;23.314;2024-02-21T03:13:31;8.20;90.70
20911;DHT22;10615;42.702;23.314;2024-02-21T03:14:32;8.20;90.80
20911;DHT22;10615;42.702;23.314;2024-02-21T03:15:33;8.20;91.20
20911;DHT22;10615;42.702;23.314;2024-02-21T03:16:34;8.20;90.80
20911;DHT22;10615;42.702;23.314;2024-02-21T03:17:34;8.20;90.80
20911;DHT22;10615;42.702;23.314;2024-02-21T03:18:35;8.20;90.80
20911;DHT22;10615;42.702;23.314;2024-02-21T03:19:36;8.30;90.80
20911;DHT22;10615;42.702;23.314;2024-02-21T03:20:37;8.30;90.80
20911;DHT22;10615;42.702;23.314;2024-02-21T03:21:37;8.30;90.80
20911;DHT22;10615;42.702;23.314;2024-02-21T03:22:38;8.30;90.80
20911;DHT22;10615;42.702;23.314;2024-02-21T03:23:39;8.30;90.80
20911;DHT22;10615;42.702;23.314;2024-02-21T03:24:40;8.30;90.80
20911;DHT22;10615;42.702;23.314;2024-02-21T03:25:41;8.30;90.80
20911;DHT22;10615;42.702;23.314;2024-02-21T03:26:42;8.30;90.80
20911;DHT22;10615;42.702;23.314;2024-02-21T03:27:42;8.30;90.80
20911;DHT22;10615;42.702;23.314;2024-02-21T03:28:44;8.30;90.80
20911;DHT22;10615;42.702;23.314;2024-02-21T03:29:48;8.30;90.80
20911;DHT22;10615;42.702;23.314;2024-02-21T03:30:49;8.30;90.70
20911;DHT22;10615;42.702;23.314;2024-02-21T03:31:50;8.30;90.70
20911;DHT22;10615;42.702;23.314;2024-02-21T03:32:51;8.30;90.80
20911;DHT22;10615;42.702;23.314;2024-02-21T03:33:51;8.30;90.80
20911;DHT22;10615;42.702;23.314;2024-02-21T03:34:52;8.30;90.70
20911;DHT22;10615;42.702;23.314;2024-02-21T03:35:53;8.30;90.80
20911;DHT22;10615;42.702;23.314;2024-02-21T03:36:54;8.30;90.80
20911;DHT22;10615;42.702;23.314;2024-02-21T03:37:54;8.30;90.80
20911;DHT22;10615;42.702;23.314;2024-02-21T03:38:55;8.30;90.80
20911;DHT22;10615;42.702;23.314;2024-02-21T03:39:56;8.30;90.80
20911;DHT22;10615;42.702;23.314;2024-02-21T03:40:56;8.30;90.80
20911;DHT22;10615;42.702;23.314;2024-02-21T03:41:57;8.30;90.70
20911;DHT22;10615;42.702;23.314;2024-02-21T03:42:58;8.30;90.70
20911;DHT22;10615;42.702;23.314;2024-02-21T03:43:59;8.30;90.70
20911;DHT22;10615;42.702;23.314;2024-02-21T03:44:59;8.30;90.70
20911;DHT22;10615;42.702;23.314;2024-02-21T03:46:00;8.30;90.70
20911;DHT22;10615;42.702;23.314;2024-02-21T03:47:02;8.30;90.70
20911;DHT22;10615;42.702;23.314;2024-02-21T03:48:03;8.30;90.70
20911;DHT22;10615;42.702;23.314;2024-02-21T03:49:04;8.30;90.70
20911;DHT22;10615;42.702;23.314;2024-02-21T03:50:06;8.30;90.70
20911;DHT22;10615;42.702;23.314;2024-02-21T03:51:07;8.30;90.70
20911;DHT22;10615;42.702;23.314;2024-02-21T03:52:08;8.30;90.70
20911;DHT22;10615;42.702;23.314;2024-02-21T03:53:09;8.30;90.70
20911;DHT22;10615;42.702;23.314;2024-02-21T03:54:10;8.30;90.60
20911;DHT22;10615;42.702;23.314;2024-02-21T03:55:10;8.40;90.60
20911;DHT22;10615;42.702;23.314;2024-02-21T03:56:11;8.40;90.60
20911;DHT22;10615;42.702;23.314;2024-02-21T03:57:12;8.40;90.50
20911;DHT22;10615;42.702;23.314;2024-02-21T03:58:13;8.40;90.40
20911;DHT22;10615;42.702;23.314;2024-02-21T03:59:13;8.30;90.40
20911;DHT22;10615;42.702;23.314;2024-02-21T04:00:15;8.30;90.30
20911;DHT22;10615;42.702;23.314;2024-02-21T04:01:16;8.30;90.30
20911;DHT22;10615;42.702;23.314;2024-02-21T04:02:17;8.30;90.30
20911;DHT22;10615;42.702;23.314;2024-02-21T04:03:17;8.30;90.30
20911;DHT22;10615;42.702;23.314;2024-02-21T04:04:18;8.30;90.30
20911;DHT22;10615;42.702;23.314;2024-02-21T04:05:19;8.30;90.30
20911;DHT22;10615;42.702;23.314;2024-02-21T04:06:20;8.30;90.30
20911;DHT22;10615;42.702;23.314;2024-02-21T04:07:21;8.30;90.30
20911;DHT22;10615;42.702;23.314;2024-02-21T04:08:22;8.30;90.30
20911;DHT22;10615;42.702;23.314;2024-02-21T04:09:23;8.30;90.30
20911;DHT22;10615;42.702;23.314;2024-02-21T04:10:24;8.30;90.30
20911;DHT22;10615;42.702;23.314;2024-02-21T04:11:25;8.30;90.30
20911;DHT22;10615;42.702;23.314;2024-02-21T04:12:25;8.30;90.30
20911;DHT22;10615;42.702;23.314;2024-02-21T04:13:26;8.30;90.30
20911;DHT22;10615;42.702;23.314;2024-02-21T04:14:27;8.30;90.30
20911;DHT22;10615;42.702;23.314;2024-02-21T04:15:28;8.30;90.30
20911;DHT22;10615;42.702;23.314;2024-02-21T04:16:28;8.30;90.30
20911;DHT22;10615;42.702;23.314;2024-02-21T04:17:29;8.30;90.60
20911;DHT22;10615;42.702;23.314;2024-02-21T04:18:30;8.30;90.20
20911;DHT22;10615;42.702;23.314;2024-02-21T04:19:30;8.30;90.20
20911;DHT22;10615;42.702;23.314;2024-02-21T04:20:31;8.30;90.20
20911;DHT22;10615;42.702;23.314;2024-02-21T04:21:32;8.30;90.10
20911;DHT22;10615;42.702;23.314;2024-02-21T04:22:33;8.30;90.10
20911;DHT22;10615;42.702;23.314;2024-02-21T04:23:34;8.30;90.10
20911;DHT22;10615;42.702;23.314;2024-02-21T04:24:35;8.40;90.20
20911;DHT22;10615;42.702;23.314;2024-02-21T04:25:36;8.30;90.10
20911;DHT22;10615;42.702;23.314;2024-02-21T04:26:37;8.30;90.10
20911;DHT22;10615;42.702;23.314;2024-02-21T04:27:40;8.30;90.10
20911;DHT22;10615;42.702;23.314;2024-02-21T04:28:42;8.30;90.10
20911;DHT22;10615;42.702;23.314;2024-02-21T04:29:45;8.30;90.10
20911;DHT22;10615;42.702;23.314;2024-02-21T04:30:45;8.30;90.10
20911;DHT22;10615;42.702;23.314;2024-02-21T04:31:46;8.30;90.10
20911;DHT22;10615;42.702;23.314;2024-02-21T04:32:47;8.30;90.20
20911;DHT22;10615;42.702;23.314;2024-02-21T04:33:47;8.30;90.10
20911;DHT22;10615;42.702;23.314;2024-02-21T04:34:48;8.30;90.20
20911;DHT22;10615;42.702;23.314;2024-02-21T04:35:49;8.30;90.10
20911;DHT22;10615;42.702;23.314;2024-02-21T04:36:50;8.30;90.10
20911;DHT22;10615;42.702;23.314;2024-02-21T04:37:50;8.30;90.00
20911;DHT22;10615;42.702;23.314;2024-02-21T04:38:51;8.30;90.00
20911;DHT22;10615;42.702;23.314;2024-02-21T04:39:52;8.30;90.00
20911;DHT22;10615;42.702;23.314;2024-02-21T04:40:53;8.30;90.00
20911;DHT22;10615;42.702;23.314;2024-02-21T04:41:53;8.30;90.00
20911;DHT22;10615;42.702;23.314;2024-02-21T04:42:54;8.30;90.00
20911;DHT22;10615;42.702;23.314;2024-02-21T04:43:55;8.30;90.00
20911;DHT22;10615;42.702;23.314;2024-02-21T04:44:55;8.30;90.00
20911;DHT22;10615;42.702;23.314;2024-02-21T04:45:56;8.30;90.00
20911;DHT22;10615;42.702;23.314;2024-02-21T04:46:57;8.30;90.00
20911;DHT22;10615;42.702;23.314;2024-02-21T04:47:58;8.30;90.00
20911;DHT22;10615;42.702;23.314;2024-02-21T04:48:58;8.30;90.00
20911;DHT22;10615;42.702;23.314;2024-02-21T04:49:59;8.30;90.00
20911;DHT22;10615;42.702;23.314;2024-02-21T04:51:00;8.30;90.00
20911;DHT22;10615;42.702;23.314;2024-02-21T04:52:01;8.30;90.00
20911;DHT22;10615;42.702;23.314;2024-02-21T04:53:01;8.30;90.00
20911;DHT22;10615;42.702;23.314;2024-02-21T04:54:02;8.30;89.90
20911;DHT22;10615;42.702;23.314;2024-02-21T04:55:04;8.20;90.00
20911;DHT22;10615;42.702;23.314;2024-02-21T04:56:05;8.20;90.00
20911;DHT22;10615;42.702;23.314;2024-02-21T04:57:06;8.20;90.00
20911;DHT22;10615;42.702;23.314;2024-02-21T04:58:07;8.20;90.00
20911;DHT22;10615;42.702;23.314;2024-02-21T04:59:08;8.20;90.10
20911;DHT22;10615;42.702;23.314;2024-02-21T05:00:09;8.20;90.10
20911;DHT22;10615;42.702;23.314;2024-02-21T05:01:11;8.20;90.10
20911;DHT22;10615;42.702;23.314;2024-02-21T05:02:12;8.20;90.10
20911;DHT22;10615;42.702;23.314;2024-02-21T05:03:12;8.20;90.10
20911;DHT22;10615;42.702;23.314;2024-02-21T05:04:13;8.20;90.10
20911;DHT22;10615;42.702;23.314;2024-02-21T05:05:14;8.20;90.10
20911;DHT22;10615;42.702;23.314;2024-02-21T05:06:17;8.20;90.10
20911;DHT22;10615;42.702;23.314;2024-02-21T05:07:18;8.20;90.10
20911;DHT22;10615;42.702;23.314;2024-02-21T05:08:19;8.20;90.10
20911;DHT22;10615;42.702;23.314;2024-02-21T05:09:20;8.20;90.10
20911;DHT22;10615;42.702;23.314;2024-02-21T05:10:21;8.30;90.10
20911;DHT22;10615;42.702;23.314;2024-02-21T05:11:22;8.20;90.10
20911;DHT22;10615;42.702;23.314;2024-02-21T05:12:23;8.20;90.10
20911;DHT22;10615;42.702;23.314;2024-02-21T05:13:23;8.20;90.10
20911;DHT22;10615;42.702;23.314;2024-02-21T05:14:25;8.20;90.10
20911;DHT22;10615;42.702;23.314;2024-02-21T05:15:27;8.20;90.10
20911;DHT22;10615;42.702;23.314;2024-02-21T05:16:28;8.30;90.10
20911;DHT22;10615;42.702;23.314;2024-02-21T05:17:28;8.30;90.10
20911;DHT22;10615;42.702;23.314;2024-02-21T05:18:29;8.30;90.10
20911;DHT22;10615;42.702;23.314;2024-02-21T05:19:30;8.20;90.10
20911;DHT22;10615;42.702;23.314;2024-02-21T05:20:30;8.20;90.10
20911;DHT22;10615;42.702;23.314;2024-02-21T05:21:31;8.20;90.10
20911;DHT22;10615;42.702;23.314;2024-02-21T05:22:32;8.20;90.10
20911;DHT22;10615;42.702;23.314;2024-02-21T05:23:33;8.20;90.20
20911;DHT22;10615;42.702;23.314;2024-02-21T05:24:33;8.20;90.20
20911;DHT22;10615;42.702;23.314;2024-02-21T05:25:34;8.20;90.20
20911;DHT22;10615;42.702;23.314;2024-02-21T05:26:35;8.20;90.20
20911;DHT22;10615;42.702;23.314;2024-02-21T05:27:35;8.20;90.10
20911;DHT22;10615;42.702;23.314;2024-02-21T05:28:37;8.20;90.10
20911;DHT22;10615;42.702;23.314;2024-02-21T05:29:37;8.30;90.10
20911;DHT22;10615;42.702;23.314;2024-02-21T05:30:38;8.20;90.10
20911;DHT22;10615;42.702;23.314;2024-02-21T05:32:51;8.30;90.30
20911;DHT22;10615;42.702;23.314;2024-02-21T05:33:52;8.30;90.30
20911;DHT22;10615;42.702;23.314;2024-02-21T05:34:53;8.30;90.40
20911;DHT22;10615;42.702;23.314;2024-02-21T05:35:54;8.40;90.40
20911;DHT22;10615;42.702;23.314;2024-02-21T05:36:54;8.40;90.40
20911;DHT22;10615;42.702;23.314;2024-02-21T05:37:55;8.40;90.50
20911;DHT22;10615;42.702;23.314;2024-02-21T05:38:56;8.50;90.40
20911;DHT22;10615;42.702;23.314;2024-02-21T05:39:58;8.50;90.30
20911;DHT22;10615;42.702;23.314;2024-02-21T05:40:58;8.50;90.20
20911;DHT22;10615;42.702;23.314;2024-02-21T05:41:59;8.50;90.20
20911;DHT22;10615;42.702;23.314;2024-02-21T05:43:00;8.60;90.20
20911;DHT22;10615;42.702;23.314;2024-02-21T05:44:00;8.60;90.20
20911;DHT22;10615;42.702;23.314;2024-02-21T05:45:01;8.60;90.10
20911;DHT22;10615;42.702;23.314;2024-02-21T05:46:02;8.60;90.00
20911;DHT22;10615;42.702;23.314;2024-02-21T05:47:02;8.60;90.00
20911;DHT22;10615;42.702;23.314;2024-02-21T05:48:04;8.60;89.90
20911;DHT22;10615;42.702;23.314;2024-02-21T05:49:04;8.60;89.90
20911;DHT22;10615;42.702;23.314;2024-02-21T05:50:06;8.60;89.70
20911;DHT22;10615;42.702;23.314;2024-02-21T05:51:06;8.60;89.50
20911;DHT22;10615;42.702;23.314;2024-02-21T05:52:07;8.60;89.60
20911;DHT22;10615;42.702;23.314;2024-02-21T05:53:08;8.70;89.70
20911;DHT22;10615;42.702;23.314;2024-02-21T05:54:08;8.60;89.50
20911;DHT22;10615;42.702;23.314;2024-02-21T05:55:09;8.70;89.40
20911;DHT22;10615;42.702;23.314;2024-02-21T05:56:11;8.70;89.20
20911;DHT22;10615;42.702;23.314;2024-02-21T05:57:12;8.70;89.90
20911;DHT22;10615;42.702;23.314;2024-02-21T05:58:13;8.70;88.90
20911;DHT22;10615;42.702;23.314;2024-02-21T05:59:14;8.70;88.80
20911;DHT22;10615;42.702;23.314;2024-02-21T06:00:15;8.70;88.70
20911;DHT22;10615;42.702;23.314;2024-02-21T06:01:16;8.70;88.80
20911;DHT22;10615;42.702;23.314;2024-02-21T06:02:18;8.70;88.80
20911;DHT22;10615;42.702;23.314;2024-02-21T06:03:18;8.70;88.90
20911;DHT22;10615;42.702;23.314;2024-02-21T06:04:19;8.70;88.80
20911;DHT22;10615;42.702;23.314;2024-02-21T06:05:20;8.70;88.80
20911;DHT22;10615;42.702;23.314;2024-02-21T06:06:21;8.70;88.80
20911;DHT22;10615;42.702;23.314;2024-02-21T06:07:25;8.80;88.70
20911;DHT22;10615;42.702;23.314;2024-02-21T06:08:26;8.80;88.70
20911;DHT22;10615;42.702;23.314;2024-02-21T06:09:27;8.80;88.60
20911;DHT22;10615;42.702;23.314;2024-02-21T06:10:28;8.80;88.40
20911;DHT22;10615;42.702;23.314;2024-02-21T06:11:28;8.90;88.30
20911;DHT22;10615;42.702;23.314;2024-02-21T06:12:29;8.90;88.10
20911;DHT22;10615;42.702;23.314;2024-02-21T06:13:30;8.90;87.80
20911;DHT22;10615;42.702;23.314;2024-02-21T06:14:31;8.90;87.70
20911;DHT22;10615;42.702;23.314;2024-02-21T06:15:32;8.90;87.70
20911;DHT22;10615;42.702;23.314;2024-02-21T06:16:32;8.90;87.80
20911;DHT22;10615;42.702;23.314;2024-02-21T06:17:33;9.00;87.80
20911;DHT22;10615;42.702;23.314;2024-02-21T06:18:35;9.10;87.90
20911;DHT22;10615;42.702;23.314;2024-02-21T06:19:40;9.20;87.80
20911;DHT22;10615;42.702;23.314;2024-02-21T06:20:42;9.40;87.60
20911;DHT22;10615;42.702;23.314;2024-02-21T06:21:43;9.40;87.10
20911;DHT22;10615;42.702;23.314;2024-02-21T06:22:44;9.50;86.60
20911;DHT22;10615;42.702;23.314;2024-02-21T06:23:45;9.60;86.30
20911;DHT22;10615;42.702;23.314;2024-02-21T06:24:46;9.70;85.90
20911;DHT22;10615;42.702;23.314;2024-02-21T06:25:46;9.80;85.60
20911;DHT22;10615;42.702;23.314;2024-02-21T06:26:48;9.90;85.30
20911;DHT22;10615;42.702;23.314;2024-02-21T06:27:49;10.00;84.80